createdAt,value
2023-08-15T00:01:05.927Z,101124.47
2023-08-15T00:03:27.794Z,101123.25
2023-08-15T00:05:49.526Z,101116.84
2023-08-15T00:08:11.161Z,101108.41
2023-08-15T00:10:32.872Z,101101.59
2023-08-15T00:12:54.550Z,101109.97
2023-08-15T00:15:16.313Z,101104.41
2023-08-15T00:17:38.006Z,101102.38
2023-08-15T00:19:59.736Z,101104.38
2023-08-15T00:22:21.406Z,101096.72
2023-08-15T00:24:43.086Z,101103.97
2023-08-15T00:27:04.792Z,101106.78
2023-08-15T00:29:26.442Z,101103.97
2023-08-15T00:31:48.166Z,101110.38
2023-08-15T00:34:09.905Z,101112.00
2023-08-15T00:36:31.649Z,101110.41
2023-08-15T00:38:53.982Z,101114.41
2023-08-15T00:41:15.643Z,101112.81
2023-08-15T00:43:37.451Z,101112.78
2023-08-15T00:46:03.419Z,101104.78
2023-08-15T00:48:30.923Z,101101.56
2023-08-15T00:50:52.657Z,101102.81
2023-08-15T00:53:14.512Z,101109.97
2023-08-15T00:55:36.559Z,101120.41
2023-08-15T00:57:58.836Z,101116.78
2023-08-15T01:00:20.785Z,101112.78
2023-08-15T01:02:43.510Z,101109.97
2023-08-15T01:05:06.261Z,101103.16
2023-08-15T01:07:28.150Z,101101.16
2023-08-15T01:09:49.812Z,101093.94
2023-08-15T01:12:32.577Z,101097.53
2023-08-15T01:15:04.655Z,101088.69
2023-08-15T01:17:45.479Z,101091.47
2023-08-15T01:20:21.503Z,101081.88
2023-08-15T01:22:49.185Z,101083.06
2023-08-15T01:25:11.175Z,101078.28
2023-08-15T01:27:32.819Z,101079.88
2023-08-15T01:29:54.920Z,101079.06
2023-08-15T01:32:43.777Z,101067.84
2023-08-15T01:35:37.666Z,101080.69
2023-08-15T01:38:11.413Z,101090.31
2023-08-15T01:40:36.753Z,101100.78
2023-08-15T01:43:01.640Z,101111.59
2023-08-15T01:45:25.724Z,101112.00
2023-08-15T01:47:52.690Z,101120.47
2023-08-15T01:50:14.356Z,101136.50
2023-08-15T01:52:36.552Z,101150.13
2023-08-15T01:54:58.244Z,101154.53
2023-08-15T01:57:20.250Z,101154.56
2023-08-15T01:59:44.878Z,101150.16
2023-08-15T02:02:07.942Z,101147.78
2023-08-15T02:04:29.612Z,101151.38
2023-08-15T02:06:52.493Z,101142.59
2023-08-15T02:09:14.190Z,101146.19
2023-08-15T02:11:36.036Z,101138.56
2023-08-15T02:13:59.554Z,101155.81
2023-08-15T02:16:21.286Z,101158.22
2023-08-15T02:18:42.982Z,101169.41
2023-08-15T02:21:05.391Z,101174.63
2023-08-15T02:23:27.036Z,101185.88
2023-08-15T02:25:48.952Z,101191.84
2023-08-15T02:28:10.630Z,101183.44
2023-08-15T02:30:38.167Z,101193.81
2023-08-15T02:32:59.826Z,101199.81
2023-08-15T02:35:21.595Z,101177.81
2023-08-15T02:37:43.340Z,101185.00
2023-08-15T02:40:07.456Z,101183.41
2023-08-15T02:42:29.126Z,101185.78
2023-08-15T02:44:51.096Z,101183.81
2023-08-15T02:47:13.456Z,101184.59
2023-08-15T02:49:35.140Z,101185.75
2023-08-15T02:51:56.818Z,101192.97
2023-08-15T02:54:18.546Z,101186.53
2023-08-15T02:56:40.179Z,101174.13
2023-08-15T02:59:01.983Z,101172.13
2023-08-15T03:01:24.724Z,101177.31
2023-08-15T03:03:46.423Z,101186.53
2023-08-15T03:06:08.068Z,101187.31
2023-08-15T03:08:31.176Z,101196.09
2023-08-15T03:10:53.515Z,101197.31
2023-08-15T03:13:15.195Z,101202.50
2023-08-15T03:15:37.749Z,101209.69
2023-08-15T03:17:59.706Z,101207.66
2023-08-15T03:20:22.248Z,101202.06
2023-08-15T03:22:44.693Z,101202.88
2023-08-15T03:25:07.259Z,101210.06
2023-08-15T03:27:28.925Z,101214.81
2023-08-15T03:29:50.886Z,101208.38
2023-08-15T03:32:12.617Z,101205.56
2023-08-15T03:34:34.465Z,101205.53
2023-08-15T03:36:57.657Z,101213.50
2023-08-15T03:39:19.308Z,101212.72
2023-08-15T03:41:40.992Z,101205.09
2023-08-15T03:44:02.755Z,101193.88
2023-08-15T03:46:25.093Z,101191.88
2023-08-15T03:48:49.097Z,101198.66
2023-08-15T03:51:12.918Z,101191.84
2023-08-15T03:53:38.194Z,101183.03
2023-08-15T03:56:00.220Z,101193.00
2023-08-15T03:58:22.993Z,101186.56
2023-08-15T04:00:45.738Z,101192.16
2023-08-15T04:03:07.497Z,101201.34
2023-08-15T04:05:29.140Z,101199.72
2023-08-15T04:07:51.204Z,101203.69
2023-08-15T04:10:14.605Z,101201.69
2023-08-15T04:12:36.494Z,101199.25
2023-08-15T04:14:58.250Z,101199.66
2023-08-15T04:17:20.072Z,101191.19
2023-08-15T04:19:41.908Z,101198.72
2023-08-15T04:22:03.613Z,101206.69
2023-08-15T04:24:25.339Z,101205.88
2023-08-15T04:26:47.019Z,101211.03
2023-08-15T04:29:08.977Z,101213.38
2023-08-15T04:31:30.660Z,101210.53
2023-08-15T04:33:52.309Z,101215.31
2023-08-15T04:36:14.059Z,101223.66
2023-08-15T04:38:35.725Z,101228.44
2023-08-15T04:40:59.226Z,101224.81
2023-08-15T04:43:21.914Z,101229.13
2023-08-15T04:45:45.301Z,101230.69
2023-08-15T04:48:12.497Z,101250.25
2023-08-15T04:50:34.185Z,101254.25
2023-08-15T04:52:55.928Z,101251.03
2023-08-15T04:55:18.970Z,101255.44
2023-08-15T04:57:41.322Z,101261.03
2023-08-15T05:00:04.497Z,101255.81
2023-08-15T05:02:26.245Z,101261.41
2023-08-15T05:04:47.959Z,101277.31
2023-08-15T05:07:09.725Z,101281.25
2023-08-15T05:09:31.617Z,101291.22
2023-08-15T05:11:53.291Z,101292.41
2023-08-15T05:14:16.266Z,101297.13
2023-08-15T05:16:37.906Z,101308.31
2023-08-15T05:18:59.709Z,101299.50
2023-08-15T05:21:21.507Z,101307.53
2023-08-15T05:23:43.202Z,101306.72
2023-08-15T05:26:04.923Z,101307.88
2023-08-15T05:28:26.830Z,101319.50
2023-08-15T05:30:48.711Z,101319.13
2023-08-15T05:33:10.435Z,101324.38
2023-08-15T05:35:32.686Z,101331.19
2023-08-15T05:37:55.027Z,101337.63
2023-08-15T05:40:17.249Z,101335.66
2023-08-15T05:42:38.955Z,101334.91
2023-08-15T05:45:00.616Z,101330.16
2023-08-15T05:47:22.528Z,101334.22
2023-08-15T05:49:44.517Z,101324.72
2023-08-15T05:52:06.324Z,101328.38
2023-08-15T05:54:28.450Z,101334.50
2023-08-15T05:56:50.171Z,101332.97
2023-08-15T05:59:11.837Z,101333.44
2023-08-15T06:01:34.363Z,101338.72
2023-08-15T06:03:56.187Z,101338.00
2023-08-15T06:06:18.055Z,101329.69
2023-08-15T06:08:39.734Z,101344.16
2023-08-15T06:11:01.361Z,101352.66
2023-08-15T06:13:23.066Z,101362.31
2023-08-15T06:15:45.547Z,101340.75
2023-08-15T06:18:07.245Z,101358.03
2023-08-15T06:20:29.318Z,101352.91
2023-08-15T06:22:51.119Z,101346.50
2023-08-15T06:25:12.873Z,101359.38
2023-08-15T06:27:34.785Z,101371.00
2023-08-15T06:29:56.576Z,101367.44
2023-08-15T06:32:30.414Z,101376.69
2023-08-15T06:34:52.109Z,101377.09
2023-08-15T06:37:14.582Z,101376.34
2023-08-15T06:39:36.332Z,101381.97
2023-08-15T06:41:57.978Z,101380.81
2023-08-15T06:44:19.657Z,101377.25
2023-08-15T06:46:41.386Z,101377.28
2023-08-15T06:49:03.233Z,101382.09
2023-08-15T06:51:24.942Z,101390.13
2023-08-15T06:53:46.729Z,101389.78
2023-08-15T06:56:10.881Z,101391.78
2023-08-15T06:58:32.527Z,101400.63
2023-08-15T07:00:55.402Z,101391.06
2023-08-15T07:03:17.910Z,101387.84
2023-08-15T07:05:39.603Z,101387.84
2023-08-15T07:08:04.382Z,101382.66
2023-08-15T07:10:26.550Z,101385.50
2023-08-15T07:12:48.166Z,101396.72
2023-08-15T07:15:10.196Z,101387.50
2023-08-15T07:17:32.159Z,101391.91
2023-08-15T07:19:54.443Z,101391.88
2023-08-15T07:22:16.342Z,101397.09
2023-08-15T07:24:37.989Z,101394.28
2023-08-15T07:26:59.664Z,101402.69
2023-08-15T07:29:21.398Z,101408.28
2023-08-15T07:31:43.116Z,101401.84
2023-08-15T07:34:04.811Z,101404.19
2023-08-15T07:36:26.580Z,101403.34
2023-08-15T07:38:48.223Z,101402.09
2023-08-15T07:41:09.881Z,101408.03
2023-08-15T07:43:31.585Z,101399.56
2023-08-15T07:45:53.328Z,101399.47
2023-08-15T07:48:14.998Z,101403.81
2023-08-15T07:50:37.180Z,101400.91
2023-08-15T07:52:59.669Z,101406.88
2023-08-15T07:55:22.869Z,101414.53
2023-08-15T07:57:45.139Z,101413.31
2023-08-15T08:00:09.268Z,101407.72
2023-08-15T08:02:45.294Z,101404.94
2023-08-15T08:05:09.010Z,101413.81
2023-08-15T08:07:32.240Z,101414.25
2023-08-15T08:09:53.878Z,101417.91
2023-08-15T08:12:16.363Z,101424.31
2023-08-15T08:14:44.979Z,101426.75
2023-08-15T08:17:14.073Z,101430.75
2023-08-15T08:19:35.837Z,101434.75
2023-08-15T08:21:57.485Z,101433.56
2023-08-15T08:24:19.295Z,101435.53
2023-08-15T08:26:42.055Z,101434.75
2023-08-15T08:29:03.861Z,101434.34
2023-08-15T08:31:25.542Z,101440.78
2023-08-15T08:33:48.102Z,101433.56
2023-08-15T08:36:09.736Z,101443.22
2023-08-15T08:38:31.443Z,101443.28
2023-08-15T08:40:56.744Z,101443.69
2023-08-15T08:43:19.799Z,101439.66
2023-08-15T08:45:47.848Z,101438.06
2023-08-15T08:48:10.777Z,101430.03
2023-08-15T08:50:33.552Z,101440.53
2023-08-15T08:52:55.260Z,101432.94
2023-08-15T08:55:18.502Z,101439.75
2023-08-15T08:57:42.563Z,101436.09
2023-08-15T09:00:08.948Z,101442.09
2023-08-15T09:02:31.158Z,101438.84
2023-08-15T09:04:56.074Z,101438.00
2023-08-15T09:07:17.862Z,101443.22
2023-08-15T09:09:39.567Z,101444.78
2023-08-15T09:12:01.239Z,101455.25
2023-08-15T09:14:23.614Z,101451.59
2023-08-15T09:16:50.735Z,101454.75
2023-08-15T09:19:12.434Z,101459.56
2023-08-15T09:21:34.952Z,101459.50
2023-08-15T09:23:58.428Z,101466.69
2023-08-15T09:26:20.084Z,101468.97
2023-08-15T09:28:44.855Z,101468.00
2023-08-15T09:31:06.652Z,101466.34
2023-08-15T09:33:30.740Z,101468.97
2023-08-15T09:35:58.658Z,101470.88
2023-08-15T09:38:20.866Z,101478.81
2023-08-15T09:40:46.533Z,101480.38
2023-08-15T09:43:09.416Z,101484.78
2023-08-15T09:45:31.387Z,101487.66
2023-08-15T09:47:53.549Z,101494.16
2023-08-15T09:50:17.227Z,101503.13
2023-08-15T09:52:42.189Z,101500.28
2023-08-15T09:55:04.337Z,101504.66
2023-08-15T09:57:26.160Z,101505.06
2023-08-15T09:59:48.140Z,101505.00
2023-08-15T10:02:24.057Z,101496.44
2023-08-15T10:04:50.716Z,101503.59
2023-08-15T10:07:12.628Z,101505.22
2023-08-15T10:09:34.421Z,101508.81
2023-08-15T10:11:59.321Z,101509.06
2023-08-15T10:14:23.262Z,101507.34
2023-08-15T10:16:45.687Z,101513.66
2023-08-15T10:19:15.369Z,101516.81
2023-08-15T10:21:54.358Z,101515.38
2023-08-15T10:24:16.131Z,101515.19
2023-08-15T10:26:39.694Z,101516.38
2023-08-15T10:29:03.339Z,101510.13
2023-08-15T10:31:45.424Z,101512.78
2023-08-15T10:34:11.973Z,101519.06
2023-08-15T10:36:34.753Z,101531.28
2023-08-15T10:38:56.518Z,101529.88
2023-08-15T10:41:19.201Z,101531.00
2023-08-15T10:43:48.257Z,101528.88
2023-08-15T10:46:10.693Z,101518.31
2023-08-15T10:49:03.447Z,101516.59
2023-08-15T10:51:36.516Z,101521.38
2023-08-15T10:54:02.164Z,101516.09
2023-08-15T10:56:27.264Z,101514.84
2023-08-15T10:58:51.331Z,101513.66
2023-08-15T11:01:22.656Z,101520.59
2023-08-15T11:03:47.912Z,101519.09
2023-08-15T11:06:12.693Z,101519.78
2023-08-15T11:08:34.525Z,101519.97
2023-08-15T11:10:56.262Z,101529.44
2023-08-15T11:13:18.696Z,101526.06
2023-08-15T11:15:40.724Z,101528.41
2023-08-15T11:18:02.654Z,101522.19
2023-08-15T11:20:30.212Z,101530.53
2023-08-15T11:23:01.213Z,101521.81
2023-08-15T11:25:23.041Z,101531.34
2023-08-15T11:27:46.443Z,101529.94
2023-08-15T11:30:10.011Z,101527.69
2023-08-15T11:32:31.893Z,101526.75
2023-08-15T11:34:54.665Z,101529.00
2023-08-15T11:37:18.112Z,101537.22
2023-08-15T11:39:40.336Z,101531.56
2023-08-15T11:42:02.340Z,101527.81
2023-08-15T11:44:24.089Z,101523.22
2023-08-15T11:46:53.734Z,101524.16
2023-08-15T11:49:24.869Z,101523.47
2023-08-15T11:51:47.893Z,101520.13
2023-08-15T11:54:09.724Z,101521.91
2023-08-15T11:56:51.908Z,101532.34
2023-08-15T11:59:19.814Z,101531.91
2023-08-15T12:01:44.874Z,101530.59
2023-08-15T12:04:08.916Z,101525.84
2023-08-15T12:06:31.790Z,101522.31
2023-08-15T12:08:53.687Z,101523.34
2023-08-15T12:11:21.747Z,101524.59
2023-08-15T12:13:43.544Z,101522.03
2023-08-15T12:16:08.134Z,101522.44
2023-08-15T12:18:31.489Z,101521.03
2023-08-15T12:20:54.326Z,101517.97
2023-08-15T12:23:23.128Z,101511.06
2023-08-15T12:25:49.099Z,101518.38
2023-08-15T12:28:11.686Z,101514.41
2023-08-15T12:30:33.972Z,101518.22
2023-08-15T12:32:55.785Z,101509.13
2023-08-15T12:35:17.624Z,101509.16
2023-08-15T12:37:39.268Z,101513.56
2023-08-15T12:40:01.169Z,101516.00
2023-08-15T12:42:23.454Z,101511.50
2023-08-15T12:44:45.413Z,101524.34
2023-08-15T12:47:07.201Z,101525.44
2023-08-15T12:49:29.102Z,101524.28
2023-08-15T12:51:50.848Z,101529.56
2023-08-15T12:54:12.978Z,101524.22
2023-08-15T12:56:36.321Z,101538.63
2023-08-15T12:58:58.234Z,101527.91
2023-08-15T13:01:20.220Z,101532.06
2023-08-15T13:03:42.986Z,101530.66
2023-08-15T13:06:04.829Z,101526.53
2023-08-15T13:08:26.800Z,101520.28
2023-08-15T13:10:48.893Z,101517.03
2023-08-15T13:13:10.601Z,101520.28
2023-08-15T13:15:32.343Z,101517.66
2023-08-15T13:17:55.710Z,101518.69
2023-08-15T13:20:17.666Z,101514.84
2023-08-15T13:22:39.492Z,101526.03
2023-08-15T13:25:01.280Z,101520.31
2023-08-15T13:27:23.070Z,101517.66
2023-08-15T13:29:46.333Z,101516.22
2023-08-15T13:32:08.150Z,101514.31
2023-08-15T13:34:29.961Z,101510.78
2023-08-15T13:36:51.637Z,101518.06
2023-08-15T13:39:13.376Z,101518.41
2023-08-15T13:41:35.925Z,101525.69
2023-08-15T13:43:58.932Z,101517.88
2023-08-15T13:46:20.867Z,101516.91
2023-08-15T13:48:42.499Z,101522.84
2023-08-15T13:51:05.286Z,101519.66
2023-08-15T13:53:27.058Z,101526.22
2023-08-15T13:55:48.692Z,101516.38
2023-08-15T13:58:10.307Z,101528.06
2023-08-15T14:00:33.756Z,101525.94
2023-08-15T14:02:55.660Z,101524.56
2023-08-15T14:05:17.432Z,101524.91
2023-08-15T14:07:39.100Z,101530.06
2023-08-15T14:10:01.086Z,101525.25
2023-08-15T14:12:23.710Z,101525.25
2023-08-15T14:14:45.907Z,101524.13
2023-08-15T14:17:07.666Z,101517.50
2023-08-15T14:19:29.386Z,101520.63
2023-08-15T14:21:51.078Z,101526.22
2023-08-15T14:24:12.834Z,101513.97
2023-08-15T14:26:34.450Z,101520.97
2023-08-15T14:28:56.211Z,101523.66
2023-08-15T14:31:18.094Z,101518.56
2023-08-15T14:33:39.779Z,101520.94
2023-08-15T14:36:01.498Z,101514.19
2023-08-15T14:38:23.378Z,101521.72
2023-08-15T14:40:45.010Z,101518.53
2023-08-15T14:43:06.663Z,101515.69
2023-08-15T14:45:28.572Z,101517.09
2023-08-15T14:47:50.401Z,101525.84
2023-08-15T14:50:12.335Z,101522.22
2023-08-15T14:52:35.017Z,101518.81
2023-08-15T14:54:57.618Z,101523.94
2023-08-15T14:57:19.495Z,101519.47
2023-08-15T14:59:41.354Z,101529.63
2023-08-15T15:02:04.226Z,101528.59
2023-08-15T15:04:26.649Z,101525.75
2023-08-15T15:06:48.423Z,101520.38
2023-08-15T15:09:10.478Z,101525.16
2023-08-15T15:11:32.362Z,101525.97
2023-08-15T15:13:54.085Z,101524.84
2023-08-15T15:16:15.901Z,101527.41
2023-08-15T15:18:37.586Z,101530.75
2023-08-15T15:20:59.662Z,101534.94
2023-08-15T15:23:23.627Z,101530.31
2023-08-15T15:25:46.483Z,101541.19
2023-08-15T15:28:08.379Z,101548.69
2023-08-15T15:30:30.217Z,101543.97
2023-08-15T15:32:52.334Z,101550.00
2023-08-15T15:35:14.294Z,101553.38
2023-08-15T15:37:35.992Z,101548.34
2023-08-15T15:40:01.161Z,101550.16
2023-08-15T15:42:23.133Z,101555.22
2023-08-15T15:44:45.026Z,101553.78
2023-08-15T15:47:07.085Z,101554.66
2023-08-15T15:49:28.905Z,101554.94
2023-08-15T15:51:50.818Z,101555.88
2023-08-15T15:54:12.971Z,101554.72
2023-08-15T15:56:34.931Z,101566.84
2023-08-15T15:58:57.057Z,101564.09
2023-08-15T16:01:18.854Z,101566.56
2023-08-15T16:03:40.771Z,101569.06
2023-08-15T16:06:02.623Z,101564.31
2023-08-15T16:08:24.448Z,101559.59
2023-08-15T16:10:46.134Z,101562.13
2023-08-15T16:13:07.854Z,101569.47
2023-08-15T16:15:29.806Z,101564.28
2023-08-15T16:17:51.653Z,101559.28
2023-08-15T16:20:13.879Z,101562.28
2023-08-15T16:22:35.694Z,101564.91
2023-08-15T16:24:57.593Z,101561.66
2023-08-15T16:27:20.794Z,101567.47
2023-08-15T16:29:42.617Z,101571.72
2023-08-15T16:32:04.628Z,101575.19
2023-08-15T16:34:26.348Z,101574.94
2023-08-15T16:36:48.527Z,101571.94
2023-08-15T16:39:10.234Z,101568.84
2023-08-15T16:41:31.982Z,101573.38
2023-08-15T16:43:54.113Z,101573.44
2023-08-15T16:46:16.583Z,101581.19
2023-08-15T16:48:38.620Z,101576.81
2023-08-15T16:51:01.114Z,101580.06
2023-08-15T16:53:22.896Z,101583.31
2023-08-15T16:55:47.160Z,101583.31
2023-08-15T16:58:09.178Z,101591.00
2023-08-15T17:00:31.550Z,101589.47
2023-08-15T17:02:54.039Z,101595.91
2023-08-15T17:05:16.638Z,101592.28
2023-08-15T17:07:38.483Z,101593.06
2023-08-15T17:10:00.644Z,101587.00
2023-08-15T17:12:22.514Z,101595.06
2023-08-15T17:14:44.614Z,101593.81
2023-08-15T17:17:06.278Z,101594.53
2023-08-15T17:19:27.925Z,101591.22
2023-08-15T17:21:49.660Z,101586.38
2023-08-15T17:24:11.360Z,101595.25
2023-08-15T17:26:33.040Z,101604.03
2023-08-15T17:28:54.890Z,101602.44
2023-08-15T17:31:17.013Z,101603.28
2023-08-15T17:33:38.700Z,101613.41
2023-08-15T17:36:00.459Z,101610.69
2023-08-15T17:38:22.097Z,101611.22
2023-08-15T17:40:43.902Z,101622.09
2023-08-15T17:43:05.687Z,101617.31
2023-08-15T17:45:29.005Z,101620.13
2023-08-15T17:47:50.817Z,101623.41
2023-08-15T17:50:12.516Z,101628.31
2023-08-15T17:52:35.765Z,101617.50
2023-08-15T17:54:57.534Z,101626.00
2023-08-15T17:57:19.164Z,101626.41
2023-08-15T17:59:40.967Z,101630.88
2023-08-15T18:02:02.786Z,101628.56
2023-08-15T18:04:24.518Z,101622.53
2023-08-15T18:06:46.214Z,101627.38
2023-08-15T18:09:10.077Z,101621.69
2023-08-15T18:11:32.220Z,101625.69
2023-08-15T18:13:53.980Z,101632.56
2023-08-15T18:16:15.693Z,101634.53
2023-08-15T18:18:37.336Z,101634.50
2023-08-15T18:20:59.004Z,101637.69
2023-08-15T18:23:20.709Z,101648.97
2023-08-15T18:25:42.365Z,101646.59
2023-08-15T18:28:04.506Z,101652.66
2023-08-15T18:30:28.518Z,101651.50
2023-08-15T18:32:50.273Z,101660.41
2023-08-15T18:35:11.993Z,101654.84
2023-08-15T18:37:33.823Z,101669.00
2023-08-15T18:39:55.469Z,101668.28
2023-08-15T18:42:17.139Z,101668.69
2023-08-15T18:44:39.960Z,101674.78
2023-08-15T18:47:03.491Z,101670.41
2023-08-15T18:49:25.379Z,101672.03
2023-08-15T18:51:47.106Z,101694.19
2023-08-15T18:54:09.004Z,101695.44
2023-08-15T18:56:30.827Z,101689.41
2023-08-15T18:58:52.604Z,101703.06
2023-08-15T19:01:14.717Z,101709.91
2023-08-15T19:03:36.540Z,101704.69
2023-08-15T19:05:58.578Z,101711.09
2023-08-15T19:08:20.211Z,101711.09
2023-08-15T19:10:42.066Z,101712.31
2023-08-15T19:13:03.895Z,101724.72
2023-08-15T19:15:25.684Z,101729.94
2023-08-15T19:17:51.655Z,101731.50
2023-08-15T19:20:13.556Z,101731.50
2023-08-15T19:22:35.447Z,101740.69
2023-08-15T19:24:57.187Z,101742.28
2023-08-15T19:27:18.864Z,101746.72
2023-08-15T19:29:40.765Z,101752.72
2023-08-15T19:32:02.659Z,101754.31
2023-08-15T19:34:24.414Z,101755.50
2023-08-15T19:36:46.171Z,101760.28
2023-08-15T19:39:10.347Z,101771.09
2023-08-15T19:41:31.993Z,101769.09
2023-08-15T19:43:57.268Z,101777.53
2023-08-15T19:46:19.047Z,101781.13
2023-08-15T19:48:40.878Z,101784.31
2023-08-15T19:51:02.648Z,101780.25
2023-08-15T19:53:25.176Z,101777.81
2023-08-15T19:55:46.805Z,101791.44
2023-08-15T19:58:10.398Z,101782.53
2023-08-15T20:00:32.199Z,101792.56
2023-08-15T20:02:54.030Z,101798.94
2023-08-15T20:05:15.908Z,101791.66
2023-08-15T20:07:38.701Z,101790.44
2023-08-15T20:10:10.652Z,101789.59
2023-08-15T20:12:33.818Z,101795.59
2023-08-15T20:14:55.475Z,101803.97
2023-08-15T20:17:17.291Z,101799.56
2023-08-15T20:19:39.023Z,101799.94
2023-08-15T20:22:00.858Z,101811.16
2023-08-15T20:24:22.537Z,101802.31
2023-08-15T20:26:44.421Z,101809.94
2023-08-15T20:29:06.186Z,101807.13
2023-08-15T20:31:28.068Z,101803.91
2023-08-15T20:33:50.038Z,101811.09
2023-08-15T20:36:14.585Z,101809.47
2023-08-15T20:38:37.392Z,101816.66
2023-08-15T20:40:59.086Z,101813.81
2023-08-15T20:43:20.798Z,101813.78
2023-08-15T20:45:42.842Z,101808.94
2023-08-15T20:48:04.877Z,101811.75
2023-08-15T20:50:27.664Z,101810.97
2023-08-15T20:52:51.169Z,101816.56
2023-08-15T20:55:15.001Z,101818.94
2023-08-15T20:57:36.617Z,101821.75
2023-08-15T21:00:00.144Z,101814.56
2023-08-15T21:02:22.229Z,101814.56
2023-08-15T21:04:44.215Z,101818.56
2023-08-15T21:07:05.966Z,101821.38
2023-08-15T21:09:27.747Z,101826.22
2023-08-15T21:11:49.448Z,101828.63
2023-08-15T21:14:11.186Z,101830.22
2023-08-15T21:16:32.908Z,101828.94
2023-08-15T21:18:54.707Z,101829.72
2023-08-15T21:21:16.371Z,101831.31
2023-08-15T21:23:38.308Z,101828.44
2023-08-15T21:25:59.963Z,101828.03
2023-08-15T21:28:21.599Z,101825.22
2023-08-15T21:30:43.950Z,101830.81
2023-08-15T21:33:05.769Z,101835.69
2023-08-15T21:35:27.729Z,101826.88
2023-08-15T21:37:49.357Z,101833.31
2023-08-15T21:40:11.852Z,101834.06
2023-08-15T21:42:33.615Z,101842.88
2023-08-15T21:44:55.267Z,101836.84
2023-08-15T21:47:17.021Z,101844.44
2023-08-15T21:49:38.787Z,101838.41
2023-08-15T21:52:00.536Z,101849.22
2023-08-15T21:54:23.503Z,101844.75
2023-08-15T21:56:45.197Z,101841.91
2023-08-15T21:59:06.882Z,101845.03
2023-08-15T22:01:28.635Z,101841.38
2023-08-15T22:03:50.373Z,101844.97
2023-08-15T22:06:12.177Z,101842.56
2023-08-15T22:08:33.952Z,101840.53
2023-08-15T22:10:55.604Z,101833.31
2023-08-15T22:13:17.332Z,101840.09
2023-08-15T22:15:39.070Z,101845.69
2023-08-15T22:18:13.381Z,101844.91
2023-08-15T22:20:41.768Z,101843.28
2023-08-15T22:23:03.449Z,101844.47
2023-08-15T22:25:25.679Z,101848.84
2023-08-15T22:27:49.818Z,101838.41
2023-08-15T22:30:12.269Z,101841.56
2023-08-15T22:32:33.995Z,101844.44
2023-08-15T22:34:55.754Z,101836.84
2023-08-15T22:37:17.445Z,101843.25
2023-08-15T22:39:39.082Z,101845.66
2023-08-15T22:42:00.826Z,101850.88
2023-08-15T22:44:22.518Z,101848.91
2023-08-15T22:46:44.442Z,101847.69
2023-08-15T22:49:06.289Z,101845.28
2023-08-15T22:51:27.924Z,101848.06
2023-08-15T22:53:49.603Z,101849.69
2023-08-15T22:56:12.408Z,101850.94
2023-08-15T22:58:34.133Z,101844.97
2023-08-15T23:00:57.615Z,101844.13
2023-08-15T23:03:19.312Z,101846.56
2023-08-15T23:05:41.073Z,101846.56
2023-08-15T23:08:02.695Z,101834.91
2023-08-15T23:10:24.380Z,101839.72
2023-08-15T23:12:46.053Z,101842.53
2023-08-15T23:15:08.523Z,101833.25
2023-08-15T23:17:30.273Z,101831.22
2023-08-15T23:19:51.950Z,101831.59
2023-08-15T23:22:13.615Z,101837.97
2023-08-15T23:24:36.068Z,101830.34
2023-08-15T23:26:57.881Z,101837.53
2023-08-15T23:29:19.599Z,101831.84
2023-08-15T23:31:41.242Z,101832.25
2023-08-15T23:34:07.610Z,101829.81
2023-08-15T23:36:30.186Z,101833.00
2023-08-15T23:38:52.229Z,101839.00
2023-08-15T23:41:13.862Z,101840.16
2023-08-15T23:43:36.732Z,101837.78
2023-08-15T23:45:58.375Z,101836.19
2023-08-15T23:48:20.052Z,101831.41
2023-08-15T23:50:41.842Z,101833.41
2023-08-15T23:53:04.557Z,101826.16
2023-08-15T23:55:26.270Z,101822.13
2023-08-15T23:57:47.980Z,101818.09
